createdAt,value
2023-01-17T00:01:16.386Z,42.06
2023-01-17T00:04:01.644Z,42.12
2023-01-17T00:06:46.928Z,41.51
2023-01-17T00:09:33.278Z,42.00
2023-01-17T00:12:02.017Z,43.54
2023-01-17T00:14:28.848Z,42.40
2023-01-17T00:16:55.356Z,42.59
2023-01-17T00:19:40.534Z,44.15
2023-01-17T00:22:43.775Z,42.79
2023-01-17T00:25:34.767Z,41.98
2023-01-17T00:28:01.383Z,42.15
2023-01-17T00:30:28.602Z,43.22
2023-01-17T00:32:55.077Z,43.69
2023-01-17T00:35:26.625Z,42.33
2023-01-17T00:38:05.232Z,44.83
2023-01-17T00:40:32.973Z,44.69
2023-01-17T00:43:18.228Z,44.13
2023-01-17T00:46:04.241Z,44.02
2023-01-17T00:48:50.156Z,45.91
2023-01-17T00:51:35.601Z,45.43
2023-01-17T00:54:21.057Z,45.52
2023-01-17T00:57:06.297Z,45.25
2023-01-17T00:59:51.512Z,46.54
2023-01-17T01:02:37.215Z,45.63
2023-01-17T01:05:22.899Z,46.46
2023-01-17T01:08:07.870Z,46.46
2023-01-17T01:10:53.374Z,45.42
2023-01-17T01:13:42.727Z,46.28
2023-01-17T01:16:27.996Z,46.31
2023-01-17T01:19:13.178Z,45.10
2023-01-17T01:21:58.240Z,45.53
2023-01-17T01:27:28.661Z,44.82
2023-01-17T01:30:14.119Z,45.40
2023-01-17T01:32:59.139Z,45.01
2023-01-17T01:35:25.882Z,44.30
2023-01-17T01:37:52.410Z,43.76
2023-01-17T01:40:20.210Z,44.61
2023-01-17T01:42:51.989Z,44.22
2023-01-17T01:45:22.161Z,43.92
2023-01-17T01:47:51.358Z,44.58
2023-01-17T01:50:21.390Z,44.07
2023-01-17T01:52:53.793Z,44.21
2023-01-17T01:55:31.911Z,44.52
2023-01-17T01:58:02.823Z,44.32
2023-01-17T02:00:33.883Z,43.78
2023-01-17T02:03:04.915Z,43.70
2023-01-17T02:05:33.601Z,43.58
2023-01-17T02:08:08.590Z,44.34
2023-01-17T02:10:37.417Z,45.22
2023-01-17T02:13:05.007Z,44.34
2023-01-17T02:15:44.567Z,44.55
2023-01-17T02:18:20.118Z,44.27
2023-01-17T02:21:01.975Z,45.14
2023-01-17T02:23:48.981Z,44.64
2023-01-17T02:26:34.348Z,44.41
2023-01-17T02:29:20.281Z,44.88
2023-01-17T02:31:54.417Z,44.70
2023-01-17T02:34:49.390Z,44.46
2023-01-17T02:37:19.301Z,44.36
2023-01-17T02:39:54.011Z,44.87
2023-01-17T02:42:26.410Z,44.73
2023-01-17T02:44:53.187Z,44.30
2023-01-17T02:47:28.799Z,45.05
2023-01-17T02:50:02.121Z,44.88
2023-01-17T02:52:37.632Z,43.68
2023-01-17T02:55:18.854Z,44.15
2023-01-17T02:58:16.726Z,43.91
2023-01-17T03:01:04.923Z,43.58
2023-01-17T03:03:43.710Z,43.80
2023-01-17T03:06:30.477Z,44.67
2023-01-17T03:08:57.003Z,44.92
2023-01-17T03:11:23.560Z,43.74
2023-01-17T03:13:56.085Z,44.28
2023-01-17T03:16:25.049Z,44.18
2023-01-17T03:18:51.581Z,43.66
2023-01-17T03:21:18.192Z,43.68
2023-01-17T03:23:44.705Z,43.53
2023-01-17T03:26:11.369Z,43.76
2023-01-17T03:28:37.900Z,43.88
2023-01-17T03:31:04.555Z,43.68
2023-01-17T03:33:31.205Z,44.21
2023-01-17T03:36:00.349Z,43.95
2023-01-17T03:38:28.735Z,43.74
2023-01-17T03:40:55.273Z,43.95
2023-01-17T03:43:21.801Z,43.91
2023-01-17T03:45:54.272Z,43.71
2023-01-17T03:48:21.572Z,43.94
2023-01-17T03:50:51.415Z,44.02
2023-01-17T03:53:17.949Z,44.53
2023-01-17T03:55:47.851Z,44.08
2023-01-17T03:58:14.442Z,44.30
2023-01-17T04:00:40.968Z,44.95
2023-01-17T04:03:07.542Z,44.26
2023-01-17T04:05:34.062Z,43.82
2023-01-17T04:08:00.793Z,43.85
2023-01-17T04:10:27.321Z,43.69
2023-01-17T04:12:53.818Z,43.31
2023-01-17T04:15:20.342Z,43.24
2023-01-17T04:17:47.175Z,43.00
2023-01-17T04:20:21.516Z,43.07
2023-01-17T04:22:48.044Z,43.55
2023-01-17T04:25:14.570Z,43.79
2023-01-17T04:27:41.150Z,43.37
2023-01-17T04:30:08.277Z,43.26
2023-01-17T04:32:34.800Z,43.60
2023-01-17T04:35:01.419Z,43.12
2023-01-17T04:37:27.931Z,43.37
2023-01-17T04:39:54.455Z,43.66
2023-01-17T04:42:21.003Z,43.20
2023-01-17T04:44:47.579Z,43.03
2023-01-17T04:47:14.078Z,42.71
2023-01-17T04:49:41.658Z,42.66
2023-01-17T04:52:09.309Z,42.54
2023-01-17T04:54:35.827Z,42.49
2023-01-17T04:57:02.418Z,43.06
2023-01-17T04:59:28.962Z,42.83
2023-01-17T05:01:55.541Z,42.45
2023-01-17T05:04:22.116Z,42.71
2023-01-17T05:06:48.650Z,42.83
2023-01-17T05:09:15.190Z,42.78
2023-01-17T05:11:41.701Z,42.74
2023-01-17T05:14:10.114Z,42.84
2023-01-17T05:16:36.690Z,42.40
2023-01-17T05:19:03.264Z,42.54
2023-01-17T05:21:31.402Z,42.71
2023-01-17T05:23:58.026Z,42.64
2023-01-17T05:26:24.643Z,43.24
2023-01-17T05:28:51.326Z,43.02
2023-01-17T05:31:17.969Z,42.49
2023-01-17T05:33:44.568Z,43.12
2023-01-17T05:36:11.118Z,43.37
2023-01-17T05:38:37.617Z,43.33
2023-01-17T05:41:05.068Z,43.52
2023-01-17T05:43:31.698Z,43.62
2023-01-17T05:45:58.246Z,43.22
2023-01-17T05:48:24.809Z,43.67
2023-01-17T05:50:52.182Z,43.43
2023-01-17T05:53:18.835Z,43.68
2023-01-17T05:55:45.725Z,43.71
2023-01-17T05:58:16.486Z,43.15
2023-01-17T06:00:43.117Z,43.89
2023-01-17T06:03:09.672Z,43.78
2023-01-17T06:05:36.376Z,43.25
2023-01-17T06:08:03.067Z,43.44
2023-01-17T06:10:29.863Z,43.43
2023-01-17T06:13:12.158Z,43.11
2023-01-17T06:15:39.373Z,43.64
2023-01-17T06:18:10.906Z,43.26
2023-01-17T06:20:37.718Z,43.64
2023-01-17T06:23:07.381Z,43.62
2023-01-17T06:25:45.892Z,44.00
2023-01-17T06:28:15.024Z,43.69
2023-01-17T06:30:42.155Z,43.96
2023-01-17T06:33:08.670Z,44.12
2023-01-17T06:35:37.553Z,44.17
2023-01-17T06:38:04.153Z,44.76
2023-01-17T06:40:30.695Z,45.15
2023-01-17T06:43:04.660Z,44.73
2023-01-17T06:45:33.773Z,45.18
2023-01-17T06:48:01.565Z,44.84
2023-01-17T06:50:28.165Z,45.13
2023-01-17T06:53:06.444Z,45.70
2023-01-17T06:55:34.297Z,45.88
2023-01-17T06:58:02.634Z,45.83
2023-01-17T07:00:30.740Z,45.86
2023-01-17T07:02:57.864Z,46.17
2023-01-17T07:05:24.738Z,46.39
2023-01-17T07:07:51.309Z,46.60
2023-01-17T07:10:17.975Z,46.47
2023-01-17T07:12:44.548Z,46.40
2023-01-17T07:15:11.531Z,47.01
2023-01-17T07:17:39.047Z,46.51
2023-01-17T07:20:06.611Z,46.56
2023-01-17T07:22:33.247Z,46.79
2023-01-17T07:25:00.237Z,46.55
2023-01-17T07:27:30.213Z,46.48
2023-01-17T07:29:57.782Z,46.20
2023-01-17T07:32:26.479Z,46.06
2023-01-17T07:34:53.584Z,46.25
2023-01-17T07:37:20.338Z,46.50
2023-01-17T07:39:46.906Z,46.87
2023-01-17T07:42:13.475Z,47.01
2023-01-17T07:44:43.792Z,46.49
2023-01-17T07:47:11.130Z,46.73
2023-01-17T07:49:37.718Z,46.50
2023-01-17T07:52:06.865Z,46.74
2023-01-17T07:54:33.503Z,46.13
2023-01-17T07:56:59.995Z,46.49
2023-01-17T07:59:26.565Z,45.92
2023-01-17T08:01:53.245Z,45.97
2023-01-17T08:04:19.897Z,45.45
2023-01-17T08:06:48.662Z,45.68
2023-01-17T08:09:15.299Z,45.28
2023-01-17T08:11:41.839Z,45.21
2023-01-17T08:14:08.409Z,45.09
2023-01-17T08:16:35.012Z,44.37
2023-01-17T08:19:01.581Z,44.45
2023-01-17T08:21:28.208Z,44.61
2023-01-17T08:23:54.761Z,44.43
2023-01-17T08:26:22.199Z,43.61
2023-01-17T08:29:02.180Z,43.14
2023-01-17T08:31:31.008Z,42.90
2023-01-17T08:33:57.939Z,42.48
2023-01-17T08:36:28.656Z,41.95
2023-01-17T08:38:55.580Z,42.45
2023-01-17T08:41:23.207Z,42.16
2023-01-17T08:43:51.341Z,42.44
2023-01-17T08:46:18.193Z,42.61
2023-01-17T08:48:45.574Z,42.79
2023-01-17T08:51:12.337Z,42.72
2023-01-17T08:53:38.965Z,42.77
2023-01-17T08:56:06.173Z,42.55
2023-01-17T08:58:33.955Z,42.16
2023-01-17T09:01:05.473Z,41.69
2023-01-17T09:03:34.020Z,41.57
2023-01-17T09:06:07.847Z,40.79
2023-01-17T09:08:35.086Z,40.32
2023-01-17T09:11:06.779Z,40.06
2023-01-17T09:13:33.592Z,39.44
2023-01-17T09:16:00.706Z,39.18
2023-01-17T09:18:28.536Z,39.09
2023-01-17T09:20:58.938Z,38.88
2023-01-17T09:23:26.721Z,38.67
2023-01-17T09:25:58.305Z,38.21
2023-01-17T09:28:26.757Z,38.30
2023-01-17T09:30:54.307Z,37.31
2023-01-17T09:33:21.407Z,37.75
2023-01-17T09:35:47.935Z,36.72
2023-01-17T09:38:14.474Z,36.33
2023-01-17T09:40:47.667Z,36.90
2023-01-17T09:43:31.297Z,35.20
2023-01-17T09:45:57.841Z,36.07
2023-01-17T09:48:39.086Z,36.31
2023-01-17T09:51:15.317Z,35.79
2023-01-17T09:53:43.828Z,35.41
2023-01-17T09:56:15.780Z,34.92
2023-01-17T09:59:08.415Z,34.70
2023-01-17T10:01:52.552Z,34.48
2023-01-17T10:04:19.089Z,34.23
2023-01-17T10:06:51.838Z,34.17
2023-01-17T10:09:34.714Z,34.83
2023-01-17T10:12:20.072Z,34.70
2023-01-17T10:14:52.815Z,34.66
2023-01-17T10:17:38.066Z,34.41
2023-01-17T10:20:12.755Z,33.52
2023-01-17T10:23:03.915Z,32.85
2023-01-17T10:25:50.525Z,32.04
2023-01-17T10:28:22.043Z,31.85
2023-01-17T10:30:59.806Z,32.09
2023-01-17T10:33:41.111Z,30.78
2023-01-17T10:36:20.466Z,29.61
2023-01-17T10:38:51.273Z,30.64
2023-01-17T10:41:24.140Z,30.08
2023-01-17T10:44:07.366Z,29.86
2023-01-17T10:46:47.192Z,30.17
2023-01-17T10:49:21.175Z,29.95
2023-01-17T10:52:08.334Z,30.28
2023-01-17T10:54:40.489Z,30.33
2023-01-17T10:57:17.538Z,30.05
2023-01-17T10:59:44.208Z,30.37
2023-01-17T11:02:30.684Z,30.23
2023-01-17T11:05:02.195Z,29.48
2023-01-17T11:07:29.256Z,30.12
2023-01-17T11:09:57.703Z,29.94
2023-01-17T11:12:47.123Z,31.02
2023-01-17T11:15:13.719Z,29.80
2023-01-17T11:17:53.141Z,30.14
2023-01-17T11:20:25.625Z,30.06
2023-01-17T11:23:04.703Z,29.96
2023-01-17T11:25:35.891Z,30.33
2023-01-17T11:28:04.529Z,30.19
2023-01-17T11:30:32.480Z,30.23
2023-01-17T11:33:03.841Z,29.94
2023-01-17T11:35:33.126Z,29.97
2023-01-17T11:38:02.627Z,30.21
2023-01-17T11:40:41.277Z,29.72
2023-01-17T11:43:10.843Z,30.84
2023-01-17T11:45:41.087Z,31.02
2023-01-17T11:48:07.551Z,31.39
2023-01-17T11:50:37.515Z,30.73
2023-01-17T11:53:27.376Z,31.68
2023-01-17T11:55:57.175Z,31.10
2023-01-17T11:58:25.205Z,30.97
2023-01-17T12:00:59.749Z,30.83
2023-01-17T12:03:53.465Z,31.47
2023-01-17T12:06:56.424Z,31.97
2023-01-17T12:09:45.954Z,31.59
2023-01-17T12:12:47.844Z,31.38
2023-01-17T12:16:00.151Z,31.58
2023-01-17T12:18:44.699Z,31.91
2023-01-17T12:21:41.199Z,31.45
2023-01-17T12:24:29.218Z,31.45
2023-01-17T12:27:05.368Z,31.61
2023-01-17T12:29:37.797Z,32.29
2023-01-17T12:32:33.214Z,32.59
2023-01-17T12:35:13.051Z,31.92
2023-01-17T12:38:04.629Z,31.50
2023-01-17T12:40:46.683Z,31.72
2023-01-17T12:43:29.698Z,31.56
2023-01-17T12:45:56.450Z,30.31
2023-01-17T12:48:30.808Z,31.30
2023-01-17T12:51:06.600Z,30.42
2023-01-17T12:53:54.725Z,30.61
2023-01-17T12:56:48.758Z,30.50
2023-01-17T13:00:01.317Z,30.58
2023-01-17T13:02:48.774Z,30.01
2023-01-17T13:05:38.216Z,30.92
2023-01-17T13:08:19.676Z,30.79
2023-01-17T13:10:52.209Z,30.49
2023-01-17T13:13:25.535Z,31.21
2023-01-17T13:16:07.177Z,31.15
2023-01-17T13:18:35.628Z,31.56
2023-01-17T13:21:30.105Z,31.69
2023-01-17T13:23:59.304Z,31.80
2023-01-17T13:26:47.645Z,31.71
2023-01-17T13:29:52.204Z,32.86
2023-01-17T13:32:46.079Z,32.52
2023-01-17T13:35:35.885Z,31.99
2023-01-17T13:38:20.783Z,32.20
2023-01-17T13:40:54.410Z,32.25
2023-01-17T13:43:27.452Z,32.27
2023-01-17T13:45:57.675Z,32.11
2023-01-17T13:48:27.202Z,32.65
2023-01-17T13:51:14.875Z,32.38
2023-01-17T13:53:50.301Z,31.73
2023-01-17T13:56:19.821Z,31.61
2023-01-17T13:58:49.299Z,31.38
2023-01-17T14:01:21.909Z,30.69
2023-01-17T14:03:51.872Z,30.73
2023-01-17T14:06:33.739Z,31.76
2023-01-17T14:09:03.399Z,32.64
2023-01-17T14:11:34.474Z,32.62
2023-01-17T14:14:38.621Z,32.70
2023-01-17T14:17:28.267Z,33.11
2023-01-17T14:20:18.903Z,34.38
2023-01-17T14:22:53.835Z,33.98
2023-01-17T14:25:39.589Z,33.75
2023-01-17T14:28:30.729Z,34.09
2023-01-17T14:31:00.956Z,33.74
2023-01-17T14:33:33.974Z,34.20
2023-01-17T14:36:14.294Z,33.89
2023-01-17T14:38:42.947Z,34.00
2023-01-17T14:41:15.076Z,34.29
2023-01-17T14:43:43.479Z,34.58
2023-01-17T14:46:25.080Z,35.03
2023-01-17T14:48:58.585Z,34.99
2023-01-17T14:51:25.203Z,35.18
2023-01-17T14:53:59.714Z,35.71
2023-01-17T14:56:28.472Z,36.80
2023-01-17T14:59:11.761Z,36.06
2023-01-17T15:01:39.049Z,36.31
2023-01-17T15:04:05.696Z,36.01
2023-01-17T15:06:40.418Z,36.02
2023-01-17T15:09:20.007Z,36.42
2023-01-17T15:11:48.541Z,36.19
2023-01-17T15:14:39.701Z,36.62
2023-01-17T15:17:11.332Z,36.71
2023-01-17T15:19:45.512Z,36.66
2023-01-17T15:22:12.899Z,37.11
2023-01-17T15:24:44.614Z,38.09
2023-01-17T15:27:16.834Z,37.29
2023-01-17T15:29:45.397Z,37.47
2023-01-17T15:32:24.231Z,37.90
2023-01-17T15:34:51.715Z,38.45
2023-01-17T15:37:31.121Z,38.15
2023-01-17T15:40:20.646Z,38.42
2023-01-17T15:42:58.497Z,38.50
2023-01-17T15:45:30.843Z,39.45
2023-01-17T15:47:59.178Z,39.20
2023-01-17T15:50:30.933Z,39.45
2023-01-17T15:53:05.121Z,39.27
2023-01-17T15:55:34.546Z,39.52
2023-01-17T15:58:01.769Z,39.71
2023-01-17T16:00:38.130Z,39.75
2023-01-17T16:03:34.010Z,40.86
2023-01-17T16:06:02.874Z,40.96
2023-01-17T16:08:38.773Z,40.96
2023-01-17T16:11:07.115Z,40.83
2023-01-17T16:13:38.432Z,40.69
2023-01-17T16:16:14.122Z,40.72
2023-01-17T16:18:41.397Z,40.60
2023-01-17T16:21:18.746Z,41.76
2023-01-17T16:23:45.710Z,41.20
2023-01-17T16:26:12.340Z,41.74
2023-01-17T16:28:38.944Z,41.27
2023-01-17T16:31:05.739Z,42.03
2023-01-17T16:33:32.327Z,42.00
2023-01-17T16:35:58.932Z,41.60
2023-01-17T16:38:25.517Z,41.93
2023-01-17T16:40:52.109Z,42.11
2023-01-17T16:43:19.611Z,42.06
2023-01-17T16:45:48.470Z,42.02
2023-01-17T16:48:16.695Z,41.92
2023-01-17T16:50:48.180Z,41.83
2023-01-17T16:53:15.757Z,41.92
2023-01-17T16:55:43.130Z,42.00
2023-01-17T16:58:10.120Z,41.86
2023-01-17T17:00:36.772Z,41.76
2023-01-17T17:03:03.469Z,41.86
2023-01-17T17:05:32.373Z,41.80
2023-01-17T17:07:59.454Z,41.80
2023-01-17T17:10:27.683Z,41.70
2023-01-17T17:12:54.278Z,41.24
2023-01-17T17:15:21.473Z,41.76
2023-01-17T17:17:48.235Z,42.02
2023-01-17T17:20:15.534Z,41.99
2023-01-17T17:22:44.246Z,41.78
2023-01-17T17:25:15.853Z,41.95
2023-01-17T17:27:42.832Z,41.65
2023-01-17T17:30:10.668Z,41.92
2023-01-17T17:32:37.198Z,41.97
2023-01-17T17:35:04.109Z,42.05
2023-01-17T17:37:30.685Z,42.17
2023-01-17T17:39:57.514Z,41.75
2023-01-17T17:42:24.496Z,41.42
2023-01-17T17:44:51.116Z,42.19
2023-01-17T17:47:17.848Z,42.19
2023-01-17T17:49:44.408Z,42.51
2023-01-17T17:52:10.960Z,42.71
2023-01-17T17:54:37.674Z,42.47
2023-01-17T17:57:05.295Z,42.84
2023-01-17T17:59:31.874Z,42.12
2023-01-17T18:01:59.665Z,42.28
2023-01-17T18:04:26.493Z,42.50
2023-01-17T18:06:56.813Z,42.32
2023-01-17T18:09:23.379Z,42.24
2023-01-17T18:11:49.915Z,42.39
2023-01-17T18:14:17.611Z,42.42
2023-01-17T18:16:44.828Z,42.51
2023-01-17T18:19:17.494Z,42.46
2023-01-17T18:21:44.723Z,42.52
2023-01-17T18:24:14.362Z,42.53
2023-01-17T18:26:46.848Z,42.73
2023-01-17T18:29:15.797Z,42.78
2023-01-17T18:31:44.325Z,42.92
2023-01-17T18:34:14.004Z,42.92
2023-01-17T18:36:40.902Z,42.86
2023-01-17T18:39:27.735Z,42.76
2023-01-17T18:41:54.685Z,42.98
2023-01-17T18:44:22.333Z,42.87
2023-01-17T18:46:55.935Z,43.49
2023-01-17T18:49:22.544Z,42.98
2023-01-17T18:51:50.951Z,42.88
2023-01-17T18:54:19.090Z,43.28
2023-01-17T18:56:45.616Z,42.76
2023-01-17T18:59:13.833Z,43.15
2023-01-17T19:01:44.416Z,42.71
2023-01-17T19:04:13.019Z,43.14
2023-01-17T19:06:41.783Z,42.92
2023-01-17T19:09:10.308Z,42.44
2023-01-17T19:11:36.896Z,42.57
2023-01-17T19:14:04.616Z,42.67
2023-01-17T19:16:35.305Z,42.64
2023-01-17T19:19:08.645Z,42.63
2023-01-17T19:21:35.423Z,43.32
2023-01-17T19:24:02.395Z,43.30
2023-01-17T19:26:29.953Z,43.66
2023-01-17T19:28:58.594Z,44.06
2023-01-17T19:31:27.637Z,43.74
2023-01-17T19:33:57.317Z,43.96
2023-01-17T19:36:33.408Z,43.48
2023-01-17T19:39:05.408Z,43.56
2023-01-17T19:41:35.150Z,43.23
2023-01-17T19:44:07.278Z,43.58
2023-01-17T19:46:34.818Z,43.35
2023-01-17T19:49:02.218Z,43.56
2023-01-17T19:51:28.978Z,44.05
2023-01-17T19:53:56.465Z,43.61
2023-01-17T19:56:24.990Z,43.83
2023-01-17T19:58:52.220Z,43.57
2023-01-17T20:01:28.555Z,44.04
2023-01-17T20:03:57.777Z,44.12
2023-01-17T20:06:27.682Z,43.96
2023-01-17T20:08:54.665Z,44.12
2023-01-17T20:11:23.718Z,44.08
2023-01-17T20:13:55.629Z,43.98
2023-01-17T20:16:23.659Z,44.21
2023-01-17T20:18:50.559Z,44.06
2023-01-17T20:21:20.407Z,44.14
2023-01-17T20:23:48.148Z,44.01
2023-01-17T20:26:16.981Z,44.31
2023-01-17T20:28:45.767Z,44.56
2023-01-17T20:31:18.004Z,44.42
2023-01-17T20:33:46.845Z,44.68
2023-01-17T20:36:15.574Z,44.99
2023-01-17T20:38:43.810Z,45.16
2023-01-17T20:41:17.815Z,45.05
2023-01-17T20:43:46.607Z,45.29
2023-01-17T20:46:13.700Z,45.16
2023-01-17T20:48:51.703Z,45.27
2023-01-17T20:51:19.415Z,45.31
2023-01-17T20:53:50.248Z,45.57
2023-01-17T20:56:17.221Z,45.45
2023-01-17T20:58:43.884Z,45.33
2023-01-17T21:01:13.045Z,45.74
2023-01-17T21:03:40.139Z,45.56
2023-01-17T21:06:09.198Z,45.91
2023-01-17T21:08:41.464Z,45.67
2023-01-17T21:11:10.355Z,45.48
2023-01-17T21:13:37.102Z,45.77
2023-01-17T21:16:03.706Z,45.92
2023-01-17T21:18:31.824Z,45.92
2023-01-17T21:21:09.797Z,46.09
2023-01-17T21:23:38.037Z,46.00
2023-01-17T21:26:06.203Z,45.86
2023-01-17T21:28:35.396Z,46.18
2023-01-17T21:31:16.572Z,46.36
2023-01-17T21:33:43.516Z,46.39
2023-01-17T21:36:10.412Z,46.02
2023-01-17T21:38:36.964Z,46.49
2023-01-17T21:41:03.478Z,46.17
2023-01-17T21:43:30.023Z,45.90
2023-01-17T21:45:56.715Z,46.22
2023-01-17T21:48:23.248Z,46.33
2023-01-17T21:50:52.494Z,46.28
2023-01-17T21:53:18.996Z,46.08
2023-01-17T21:56:04.096Z,45.86
2023-01-17T21:58:45.843Z,46.02
2023-01-17T22:01:21.888Z,45.75
2023-01-17T22:03:56.879Z,45.50
2023-01-17T22:06:26.103Z,45.64
2023-01-17T22:08:52.780Z,45.71
2023-01-17T22:11:22.194Z,45.63
2023-01-17T22:13:49.083Z,45.80
2023-01-17T22:16:18.450Z,45.94
2023-01-17T22:18:45.823Z,45.84
2023-01-17T22:21:14.965Z,45.90
2023-01-17T22:24:06.491Z,46.06
2023-01-17T22:26:33.402Z,45.62
2023-01-17T22:29:00.469Z,46.07
2023-01-17T22:31:28.250Z,45.71
2023-01-17T22:34:01.747Z,46.00
2023-01-17T22:36:29.435Z,45.92
2023-01-17T22:38:56.810Z,46.04
2023-01-17T22:41:27.811Z,46.11
2023-01-17T22:43:58.453Z,45.95
2023-01-17T22:46:27.301Z,46.10
2023-01-17T22:48:56.682Z,46.36
2023-01-17T22:51:24.442Z,46.16
2023-01-17T22:53:53.821Z,46.17
2023-01-17T22:56:32.210Z,46.87
2023-01-17T22:59:00.720Z,46.47
2023-01-17T23:01:29.612Z,46.55
2023-01-17T23:04:01.575Z,46.56
2023-01-17T23:06:33.975Z,46.70
2023-01-17T23:09:03.244Z,46.87
2023-01-17T23:11:43.763Z,46.73
2023-01-17T23:14:17.094Z,47.16
2023-01-17T23:17:09.251Z,46.98
2023-01-17T23:19:49.789Z,46.92
2023-01-17T23:22:23.070Z,46.89
2023-01-17T23:24:53.944Z,46.62
2023-01-17T23:27:59.463Z,46.72
2023-01-17T23:30:27.933Z,46.05
2023-01-17T23:33:00.168Z,45.68
2023-01-17T23:35:29.715Z,45.95
2023-01-17T23:38:15.492Z,45.91
2023-01-17T23:40:42.542Z,45.19
2023-01-17T23:43:25.657Z,45.24
2023-01-17T23:45:54.072Z,46.03
2023-01-17T23:48:21.817Z,45.72
2023-01-17T23:50:48.553Z,45.71
2023-01-17T23:53:22.269Z,45.83
2023-01-17T23:55:51.013Z,45.91
2023-01-17T23:58:19.036Z,45.88
